Corinth Corners, Vermont
Current Conditions -  °F | °C
As of 3:51 PM on Friday 28 Nov 2014 (Local Time) from KMPV Reporting Station
Overcast Overcast  
Wind Chill: 12°   Ceiling: 3700
Heat Index: 21°   Visibility: 10mi
Dew Point: 14°   Wind: 7mph
Humidity: 74%   Direction: 320°NW
Pressure: 30.09"   Gusts: NA
Location:  44.0361°N, 72.2949°W
Report Text: KMPV 282051Z AUTO 32006KT 10SM BKN037 OVC045 M06/M10 A3009 RMK AO2 SNB1953E21 SLP212 P0000 60000 T10611100 53010
Loading
Personal Weather Stations






























Interactive Weather Map New forecast layout! Learn more

10-Day Weather Forecast

Advertisements
Track Severe Weather on mobile